ENBM weather

Bømoen Airport
Tjukkebygdi, Hordaland, Norway

Public forecast

Using degrees Celsius for public forecast. Weather courtesy of forecast.io.

METAR (pilot weather report)

Report is more than 6 hours old.

Closest report is Sogndal Airport, 36.2 nm (67.0 km) NNE. Retrieved 2019/05/19 19:20 UTC (8 hours ago):

ENSG 191920Z VRB02KT 9999 SCT060 13/08 Q1013 RMK WIND 3806FT 28005KT

TAF (pilot weather forecast)

Forecast is more than 12 hours old.

Closest forecast is Bergen Airport Flesland, 43.3 nm (80.1 km) WSW. Retrieved 2019/05/19 00:57 UTC (1 day ago):

TAF ENBR 192300Z 2000/2024 32005KT 9999 FEW040